x

8413320 - Bar Harbor, Me (atgm1) Weather Station

1:30 - Mon 25th Jul 2016 All times are EDT. -4 hours from GMT.

  • Wind
    3mph, 6mph gusts
  • Sea Temp 57°f
  • Air Temp 71°f
  • Sea Pressure 1012.4mb
  • 8413320 - Bar Harbor, Me
  • 8413320 - Bar Harbor, Me

More Historic Weather Station data

Upgrade to MSW Pro to gain access to the past 30 days of data for over 8000 Wavebouys and Weather Stations around the globe.

Join Pro

Comparision Forecast

View Surf forecast
   
lun. 07/25 1:30 3 6 mph 1012.4mb 57f 71f
1:24 5 6 mph 1012.4mb 57f 72f
1:18 5
mph
1012.5mb 57f 71f
1:12 5 7 mph 1012.4mb 57f 71f
1:06 6
mph
1012.5mb 57f 71f
1:00 6 9 mph 1012.6mb 57f 72f
12:54 6 7 mph 1012.5mb 57f 72f
12:48 5 6 mph 1012.6mb 57f 73f
12:42 5 8 mph 1012.7mb 57f 73f
12:36 6 8 mph 1012.7mb 57f 73f
12:30 5 6 mph 1012.7mb 57f 73f
12:24 5 7 mph 1012.8mb 57f 72f
12:18 6 7 mph 1012.8mb 57f 72f
12:12 6 7 mph 1012.8mb 57f 73f
12:06 5 8 mph 1012.7mb 57f 74f
12:00 6 8 mph 1012.7mb 57f 74f
dim. 07/24 11:54 6 10 mph 1012.6mb 58f 74f
11:48 6 8 mph 1012.5mb 58f 74f
11:42 5 7 mph 1012.5mb 58f 73f
11:36 5 6 mph 1012.5mb 58f 73f
11:30 5 8 mph 1012.5mb 59f 73f
11:24 2 8 mph 1012.5mb 59f 74f
11:18 6 10 mph - 59f 74f
11:12 8 10 mph - 59f 74f
11:06 6 8 mph - 59f 74f
11:00  -  mph 1012.5mb 59f -
10:54  -  mph 1012.5mb 59f -
10:48 5 11 mph 1012.5mb 59f -
10:42 6 11 mph 1012.5mb 59f -
10:36 7 11 mph 1012.5mb 60f -
10:30 8 11 mph - 60f -
10:24 7 10 mph - 60f -
10:18 6 9 mph 1012.5mb 60f 75f
10:12 7 10 mph 1012.5mb 60f 75f
10:06 8 10 mph 1012.4mb 60f 75f
10:00  -  mph - 60f 75f
9:54  -  mph - 60f 74f
9:48 11 14 mph - 60f -
9:42 10 13 mph - 60f -
9:36 9 14 mph - 60f -
9:30 9 14 mph 1012.4mb 60f -
9:24 9 14 mph 1012.5mb 60f -
9:18 9 14 mph 1012.4mb 60f -
9:12 8 15 mph 1012.4mb 60f -
9:06 9 15 mph 1012.4mb 60f -
9:00 10 14 mph - 61f 75f
8:54 9 14 mph - 61f 75f
8:48 10 14 mph 1012.3mb 61f -
8:42 10 14 mph 1012.1mb 61f -
8:36 9 14 mph 1012mb 61f -
8:30 9 14 mph - - -
8:24 10 14 mph - - -
8:18 8 13 mph - 62f 76f
8:12 9 13 mph - 62f 76f
8:06 9 14 mph - 62f 76f
8:00  -  mph - 62f 76f
7:54  -  mph - 62f 77f
7:48 9 13 mph - - -
7:42 9 14 mph - - -
7:36 9 13 mph - - -
7:30 8 13 mph - 62f -
7:24 7 9 mph - 61f -
7:18 6 9 mph - 61f -
7:12 6 8 mph - 61f -
7:06 5 10 mph - 61f -
7:00  -  mph - 61f 81f
6:54  -  mph - 61f 81f
6:48 6 8 mph - - -
6:42 7 10 mph - - -
6:36 9 11 mph - - -
6:30 10 13 mph - 61f -
6:24 8 9 mph - 61f -
6:18 9 11 mph 1010.7mb 62f 80f
6:12 9 10 mph 1010.7mb 62f 80f
6:06 9 14 mph 1010.7mb 62f 82f
6:00  -  mph - 62f 81f
5:54  -  mph - 62f 80f
5:48 10 14 mph - 61f 80f
5:42 10 11 mph - 60f 81f
5:36 10 16 mph - 60f 81f
5:30 11 15 mph 1010.4mb 60f 81f
5:24 10 13 mph 1010.4mb 61f 80f
5:18 9 15 mph 1010.4mb 60f 79f
5:12 13 15 mph 1010.3mb 60f 81f
5:06 13 16 mph 1010.3mb 60f 80f
5:00 11 13 mph 1010.3mb 60f 80f
4:54 10 13 mph 1010.3mb 60f 79f
4:48 9 13 mph 1010.3mb 60f 80f
4:42 11 14 mph 1010.3mb 60f 79f
4:36 9 13 mph 1010.2mb 60f 81f
4:30 8 11 mph 1010.2mb 60f 80f
4:24 7 10 mph 1010.2mb 59f 80f
4:18 7 10 mph 1010.2mb 59f 80f
4:12 9 11 mph 1010.3mb 59f 80f
4:06 6 9 mph 1010.2mb 59f 80f
4:00 8 10 mph 1010.2mb 60f 80f
3:54 8 9 mph 1010.2mb 60f 80f
3:48 7 10 mph 1010.2mb 60f 78f
3:42 8 9 mph 1010.2mb 60f 79f
3:36 8 10 mph 1010.2mb 60f 79f
3:30 6 11 mph 1010.3mb 59f 77f
3:24 8 11 mph 1010.3mb 57f 79f
3:18 8 13 mph 1010.3mb 56f 80f
3:12 8 9 mph 1010.2mb 55f 80f
3:06 7 13 mph 1010.3mb 56f 80f
3:00 9 13 mph 1010.3mb 55f 80f
2:54 9 11 mph 1010.3mb 55f 79f
2:48 8 10 mph 1010.3mb 55f 80f
2:42 8 11 mph 1010.3mb 55f 79f
2:36 7 11 mph 1010.3mb 55f 79f
2:30 8 11 mph 1010.4mb 56f 79f
2:24 7 9 mph 1010.3mb 56f 79f
2:18 7 9 mph 1010.4mb 56f 79f
2:12 9 11 mph 1010.4mb 57f 79f
2:06 7 9 mph 1010.4mb 58f 79f
2:00 6 8 mph 1010.5mb 58f 78f
1:54 7 9 mph 1010.4mb 58f 78f
1:48 7 10 mph 1010.3mb 58f 78f
1:42 7 9 mph 1010.4mb 59f 77f
1:36 7 9 mph 1010.4mb 58f 76f
1:30 9 10 mph 1010.4mb 58f 77f
1:24 9 11 mph 1010.3mb 58f 77f
1:18 7 10 mph 1010.3mb 58f 77f
1:12 7 9 mph 1010.3mb 58f 77f
1:06 8 10 mph 1010.4mb 58f 77f
1:00 9 10 mph 1010.3mb 58f 77f
12:54 9 11 mph 1010.3mb 58f 77f
12:48 8 10 mph 1010.4mb 58f 76f
12:42 8 11 mph 1010.3mb 58f 76f
12:36 7 10 mph 1010.3mb 58f 76f
12:30 6 10 mph 1010.4mb 59f 76f
12:24 9 11 mph 1010.5mb 59f 76f
12:18 9 11 mph 1010.5mb 59f 76f
12:12 8 13 mph 1010.5mb 59f 75f
12:06 7 11 mph 1010.5mb 59f 75f
12:00 6 10 mph 1010.5mb 59f 75f
11:54 7 10 mph 1010.5mb 59f 75f
11:48 8 10 mph 1010.4mb 59f 75f
11:42 7 11 mph 1010.4mb 58f 75f
11:36 8 11 mph 1010.4mb 58f 74f
11:30 7 11 mph 1010.4mb 58f 74f
11:24 8 11 mph 1010.4mb 58f 74f
11:18 8 11 mph 1010.4mb 59f 74f
11:12 8 11 mph 1010.5mb 59f 74f
11:06 7 14 mph 1010.6mb 58f 74f
11:00 7 11 mph 1010.6mb 58f 74f
10:54 7 10 mph 1010.6mb 58f 73f
10:48 8 10 mph 1010.6mb 59f 73f
10:42 7 9 mph 1010.5mb 59f 73f
10:36 7 9 mph 1010.5mb 59f 73f
10:30 6 9 mph 1010.5mb 59f 73f
10:24 6 9 mph 1010.5mb 60f 73f
10:18 6 9 mph 1010.5mb 60f 72f
10:12 6 10 mph 1010.5mb 60f 72f
10:06 8 11 mph 1010.4mb 60f 72f
10:00 6 10 mph 1010.5mb 60f 72f
9:54 10 15 mph 1010.5mb 60f 71f
9:48 11 14 mph 1010.4mb 60f 71f
9:42 13 14 mph 1010.3mb 60f 71f
9:36 10 16 mph 1010.2mb 60f 71f
9:30 11 15 mph 1010.2mb 60f 72f
9:24 13 16 mph 1010.2mb 60f 71f
9:18 14 15 mph 1010.2mb 60f 71f
9:12 14 16 mph 1010.2mb 60f 71f
9:06 14 17 mph 1010.2mb 60f 70f
9:00 16 17 mph 1010.1mb 60f 71f
8:54 15 17 mph 1010mb 60f 70f
8:48 16 18 mph 1009.9mb 60f 70f
8:42 16 20 mph 1009.9mb 60f 70f
8:36 14 17 mph 1010mb 60f 70f
8:30 15 18 mph 1010.1mb 60f 70f
8:24 17 21 mph 1010.1mb 60f 69f
8:18 16 20 mph 1010.1mb 60f 69f
8:12 14 17 mph 1010.1mb 59f 68f
8:06 14 15 mph 1010mb 59f 68f
8:00 14 15 mph 1010mb 59f 68f
7:54 13 14 mph 1010mb 59f 68f
7:48 11 14 mph 1010mb 59f 68f
7:42 11 14 mph 1010mb 60f 68f
7:36 11 14 mph 1010mb 60f 68f
7:30 11 15 mph 1009.9mb 60f 68f
7:24 13 15 mph 1010mb 60f 68f
7:18 14 15 mph 1010mb 60f 67f
7:12 11 15 mph 1010mb 60f 67f
7:06 14 16 mph 1009.9mb 60f 68f
7:00 10 11 mph 1009.9mb 60f 67f
6:54 9 11 mph 1009.9mb 60f 67f
6:48 9
mph
1009.8mb 60f 67f
6:42 7 9 mph 1009.6mb 60f 67f
6:36 7 9 mph 1009.5mb 60f 67f
6:30 6 7 mph 1009.4mb 60f 67f
6:24 7 9 mph 1009.3mb 60f 67f
6:18 8 9 mph 1009.4mb 60f 66f
6:12 7 9 mph 1009.3mb 60f 67f
6:06 7 9 mph 1009.2mb 60f 67f
6:00 6 7 mph 1009.1mb 60f 67f
5:54 5 6 mph 1008.9mb 60f 67f
5:48 7 8 mph 1008.9mb 59f 67f
5:42 7 8 mph 1008.8mb 59f 67f
5:36 8 9 mph 1008.8mb 59f 67f
5:30 7 8 mph 1008.7mb 59f 68f
5:24 7 8 mph 1008.7mb 59f 68f
5:18 6 8 mph 1008.7mb 59f 68f
5:12 7 8 mph 1008.6mb 59f 68f
5:06 7 8 mph 1008.6mb 59f 68f
5:00 7 9 mph 1008.5mb 59f 68f
4:54 8 10 mph 1008.4mb 59f 68f
4:48 9 11 mph 1008.4mb 59f 68f
4:42 10 11 mph 1008.4mb 59f 68f
4:36 8 11 mph 1008.3mb 59f 67f
4:30 9 11 mph 1008.2mb 59f 68f
4:24 9 10 mph 1008.2mb 59f 67f
4:18 9 10 mph 1008.1mb 59f 68f
4:12 7 9 mph 1007.9mb 58f 69f
4:06 6 8 mph 1007.9mb 57f 69f
4:00 6 10 mph 1007.9mb 58f 68f
3:54 7 8 mph 1007.9mb 58f 68f
3:48 7 8 mph 1007.9mb 58f 68f
3:42 7 9 mph 1007.9mb 58f 68f
3:36 8 9 mph 1007.9mb 58f 68f
3:30 7 8 mph 1007.8mb 58f 68f
3:24 7 9 mph 1007.8mb 59f 68f
3:18 7 8 mph 1007.7mb 58f 68f
3:12 8 10 mph 1007.7mb 59f 68f
3:06 8 9 mph 1007.6mb 58f 68f
3:00 7 10 mph 1007.6mb 56f 67f
2:54 8 10 mph 1007.5mb 56f 67f
2:48 9 10 mph 1007.4mb 56f 68f
2:42 9 14 mph 1007.4mb 60f 69f
2:36 11 13 mph 1007.4mb 59f 69f
2:30 11 14 mph 1007.4mb 60f 68f
2:24 10 13 mph 1007.3mb 59f 69f
2:18 11 14 mph 1007.3mb 58f 70f
2:12 11 14 mph 1007.3mb 59f 70f
2:06 8 13 mph 1007.4mb 59f 71f
2:00 8 11 mph 1007.4mb 60f 71f
1:54 8 13 mph 1007.5mb 60f 71f
1:48 9 13 mph 1007.4mb 60f 71f
1:42 8 11 mph 1007.4mb 59f 71f
1:36 8 14 mph 1007.3mb 58f 71f
1:30 7 11 mph 1007.3mb 58f 71f
1:24 10 15 mph 1007.3mb 58f 71f
1:18 10 14 mph 1007.2mb 58f 71f
1:12 10 16 mph 1007.3mb 58f 71f
1:06 11 14 mph 1007.3mb 57f 71f
1:00 7 10 mph 1007.3mb 57f 71f
12:54 7 14 mph 1007.2mb 57f 71f
12:48 8 14 mph 1007.2mb 57f 72f
12:42 9 15 mph 1007.1mb 57f 72f
12:36 7 11 mph 1007.1mb 58f 72f
12:30 8 13 mph 1007mb 57f 72f
12:24 8 15 mph 1007mb 57f 72f
12:18 7 13 mph 1007mb 57f 72f
12:12 8 13 mph 1006.9mb 57f 72f
12:06 9 14 mph 1006.9mb 56f 72f
12:00 10 15 mph 1006.9mb 56f 72f
sam. 07/23 11:54 8 14 mph 1006.8mb 56f 72f
11:48 9 14 mph 1006.8mb 57f 72f
11:42 9 14 mph 1006.9mb 57f 72f
11:36 9 14 mph 1006.9mb 57f 72f
11:30 8 14 mph 1006.8mb 57f 72f
11:24 9 14 mph 1006.7mb 57f 73f
11:18 10 17 mph - 57f 73f
11:12 10 17 mph - 58f 73f
11:06 11 16 mph - 58f 73f
11:00  -  mph - 58f 73f
10:54  -  mph - 58f 72f
10:48 7 9 mph 1006.6mb - -
10:42 6 8 mph 1006.5mb - -
10:36 6 9 mph 1006.4mb - -
10:30 6 7 mph 1006.3mb - -
10:24 7 8 mph 1006.2mb - -
10:18  -  mph 1006.2mb 58f 73f
10:12  -  mph 1006.1mb 58f 72f
10:06  -  mph 1006.1mb 58f 73f
10:00  -  mph - 58f 73f
9:54  -  mph - 58f 73f
9:48  -  mph - 59f -
9:42  -  mph - 59f -
9:36  -  mph - 59f -
9:30 5 9 mph - - -
9:24 6 8 mph - - -
9:18 2 6 mph - 59f -
9:12 3 9 mph - 59f -
9:06 6 11 mph - 59f -
9:00  -  mph - 59f 74f
8:54  -  mph - 59f 74f
8:48 9 13 mph 1005.2mb - -
8:42 8 11 mph 1005.1mb - -
8:36 8 13 mph 1005mb - -
8:30 6 8 mph - - -
8:24 6 7 mph - - -
8:18 5 6 mph 1004.7mb 60f -
8:12 1 3 mph 1004.6mb 60f -
8:06 3 5 mph 1004.6mb 59f -
8:00  -  mph - 59f -
7:54  -  mph - 59f -
7:48 3 6 mph - - -
7:42 5 8 mph - - -
7:36 8 10 mph - - -
7:30 9 10 mph - - -
7:24 8 10 mph - - -
7:18 7 9 mph 1004.5mb 59f 72f
7:12 7 8 mph 1004.5mb 59f 74f
7:06 7 8 mph 1004.6mb 59f 75f
7:00  -  mph - 59f 76f
6:54  -  mph - 59f 76f
6:48  -  mph - 58f 75f
6:42  -  mph - 58f 75f
6:36  -  mph - 58f 76f
6:30 7 13 mph - - -
6:24 7 11 mph - - -
6:18  -  mph - 58f -
6:12  -  mph - 58f -
6:06  -  mph - 58f -
6:00  -  mph - 58f -
5:54  -  mph - 58f -
5:48 13 17 mph 1004.8mb - 78f
5:42 10 17 mph 1004.6mb - 79f
5:36 9 16 mph 1004.4mb - 80f
5:30 10 18 mph 1004.3mb 58f 81f
5:24 10 16 mph 1004.3mb 58f 81f
5:18 7 13 mph 1004.1mb 58f 82f
5:12 8 15 mph 1004.1mb 58f 82f
5:06 9 16 mph 1004.1mb 59f 82f
5:00 11 17 mph 1004mb 58f 82f
4:54 9 16 mph 1004mb 58f 82f
4:48 9 15 mph 1004mb 58f 82f
4:42 8 16 mph 1003.9mb 59f 82f
4:36 9 15 mph 1003.8mb 59f 82f
4:30 9 14 mph 1003.7mb 58f 82f
4:24 9 15 mph 1003.6mb 58f 82f
4:18 10 16 mph 1003.6mb 57f 82f
4:12 10 15 mph 1003.7mb 57f 82f
4:06 6 13 mph 1003.7mb 57f 82f
4:00 11 16 mph 1003.8mb 57f 83f
3:54 9 16 mph 1003.7mb 57f 82f
3:48 9 16 mph 1003.7mb 57f 82f
3:42 8 11 mph 1003.6mb 58f 82f
3:36 5 14 mph 1003.6mb 58f 82f
3:30 9 14 mph 1003.7mb 57f 82f
3:24 9 14 mph 1003.7mb 57f 81f
3:18 7 15 mph 1003.7mb 57f 82f
3:12 10 15 mph 1003.6mb 57f 82f
3:06 9 15 mph 1003.7mb 57f 82f
3:00 7 15 mph 1003.7mb 56f 82f
2:54 8 14 mph 1003.7mb 55f 82f
2:48 10 17 mph 1003.7mb 54f 83f
2:42 8 14 mph 1003.8mb 54f 82f
2:36 8 13 mph 1003.8mb 54f 82f
2:30 8 13 mph 1003.8mb 54f 81f
2:24 8 14 mph 1003.7mb 55f 82f
2:18 6 13 mph 1003.7mb 55f 82f
2:12 11 15 mph 1003.8mb 55f 81f
2:06 9 15 mph 1003.9mb 55f 81f
2:00 8 13 mph 1003.9mb 56f 81f
1:54 6 11 mph 1003.9mb 58f 81f
1:48 9 13 mph 1004mb 58f 80f
1:42 9 15 mph 1004.1mb 58f 80f
1:36 10 14 mph 1004.1mb 59f 80f
1:30 9 15 mph 1004.2mb 58f 79f
1:24 9 16 mph 1004.3mb 58f 79f
1:18 10 14 mph 1004.3mb 59f 79f
1:12 6 11 mph 1004.4mb 59f 79f
1:06 6 9 mph 1004.5mb 59f 77f
1:00 7 13 mph 1004.5mb 58f 78f
12:54 3 5 mph 1004.6mb 58f 74f
12:48 3 6 mph 1004.5mb 58f 74f
12:42 3 5 mph 1004.6mb 58f 72f
12:36 3 5 mph 1004.6mb 58f 72f
12:30 3 5 mph 1004.7mb 58f 73f
12:24 5
mph
1004.7mb 58f 71f
12:18 3 7 mph 1004.8mb 58f 70f
12:12 7 8 mph 1004.7mb 58f 71f
12:06 6 8 mph 1004.7mb 58f 72f
12:00 7 9 mph 1004.7mb 58f 72f
11:54 6 8 mph 1004.7mb 58f 74f
11:48 6 7 mph 1004.7mb 58f 72f
11:42 6 7 mph 1004.8mb 58f 68f
11:36 6 8 mph 1004.8mb 58f 68f
11:30 6 8 mph 1004.8mb 58f 73f
11:24 6 8 mph 1004.8mb 58f 74f
11:18 7 9 mph 1004.8mb 58f 72f
11:12 6 7 mph 1004.8mb 58f 72f
11:06 7 8 mph 1004.8mb 58f 72f
11:00 7 8 mph 1004.8mb 58f 71f
10:54 7 8 mph 1004.8mb 58f 71f
10:48 6 7 mph 1004.8mb 58f 71f
10:42 5 6 mph 1004.8mb 58f 71f
10:36 6 7 mph 1004.8mb 58f 69f
10:30 7 8 mph 1004.8mb 58f 67f
10:24 6 7 mph 1004.8mb 58f 67f
10:18 5
mph
1004.8mb 58f 66f
10:12 3 5 mph 1004.9mb 58f 64f
10:06 2 3 mph 1004.9mb 58f 64f
10:00 5
mph
1005mb 58f 63f
9:54 5 6 mph 1005mb 58f 64f
9:48 6
mph
1005.1mb 58f 64f
9:42 3 5 mph 1005.1mb 58f 68f
9:36 3 6 mph 1005.1mb 59f 70f
9:30 7 8 mph 1005.1mb 59f 66f
9:24 6 7 mph 1005mb 58f 68f
9:18 2 5 mph 1005mb 59f 70f
9:12 3 6 mph 1005mb 59f 69f
9:06 6 8 mph 1005mb 58f 69f
9:00 6 8 mph 1005mb 59f 68f
8:54 7 8 mph 1005mb 59f 67f
8:48 5 7 mph 1005mb 58f 69f
8:42 5 7 mph 1005mb 58f 68f
8:36 2 6 mph 1004.9mb 58f 69f
8:30 1 3 mph 1004.9mb 58f 72f
8:24 1 2 mph 1004.8mb 58f 72f
8:18  -  1 mph 1004.8mb 58f 72f
8:12  -  mph 1004.7mb 58f 72f
8:06  -  mph 1004.7mb 58f 73f
8:00  -  1 mph 1004.7mb 58f 71f
7:54 1 3 mph 1004.7mb 58f 70f
7:48 3 6 mph 1004.6mb 58f 67f
7:42 5 6 mph 1004.4mb 58f 67f
7:36 5
mph
1004.4mb 58f 67f
7:30 5
mph
1004.4mb 58f 67f
7:24 5
mph
1004.5mb 58f 65f
7:18 1 2 mph 1004.4mb 58f 67f
7:12 1
mph
1004.3mb 58f 67f
7:06 1 2 mph 1004.2mb 58f 67f
7:00  -  3 mph 1004.2mb 58f 66f
6:54 3 5 mph 1004.1mb 58f 66f
6:48 3 6 mph 1004mb 58f 66f
6:42 3 5 mph 1004.1mb 58f 66f
6:36 5
mph
1004.1mb 59f 65f
6:30 5 6 mph 1004mb 59f 66f
6:24 3 5 mph 1004.1mb 59f 65f
6:18 5 6 mph 1004.2mb 59f 65f
6:12 8 9 mph 1004.3mb 59f 65f
6:06 5 9 mph 1004.2mb 58f 65f
6:00 7 8 mph 1003.8mb 58f 66f
5:54 6 8 mph 1003.7mb 58f 65f
5:48 5
mph
1003.4mb 58f 67f
5:42 3 7 mph 1003.2mb 58f 68f
5:36 6 9 mph 1003.6mb 58f 67f
5:30 8 13 mph 1003.8mb 58f 68f
5:24 9 13 mph 1003.9mb 58f 68f
5:18 11 14 mph 1003.6mb 58f 67f
5:12 7 10 mph 1003.6mb 58f 69f
5:06 7 11 mph 1003.5mb 58f 69f
5:00 7 14 mph 1003.7mb 58f 69f
4:54 9 14 mph 1003.8mb 58f 69f
4:48 9 15 mph 1003.7mb 58f 69f
4:42 11 16 mph 1004.1mb 58f 69f
4:36 10 16 mph 1004.3mb 58f 69f
4:30 10 18 mph 1004.5mb 58f 70f
4:24 10 17 mph 1004.6mb 58f 71f
4:18 10 15 mph 1004.7mb 58f 71f
4:12 3 6 mph 1004.6mb 58f 67f
4:06 3 5 mph 1004.7mb 58f 65f
4:00 5 7 mph 1004.5mb 58f 65f
3:54 1 3 mph 1004mb 58f 63f
3:48  -  1 mph 1003.8mb 58f 65f
3:42  -  2 mph 1003.9mb 58f 65f
3:36 1 2 mph 1003.9mb 58f 65f
3:30 2 3 mph 1003.8mb 58f 64f
3:24 2 3 mph 1003.9mb 58f 64f
3:18 1 2 mph 1003.9mb 58f 64f
3:12 2 5 mph 1003.9mb 58f 63f
3:06 3 6 mph 1003.9mb 58f 63f
3:00 2 5 mph 1004mb 58f 64f
2:54 2 5 mph 1004.1mb 58f 63f
2:48 2 3 mph 1004.1mb 58f 63f
2:42  -  2 mph 1004mb 58f 63f
2:36 1 5 mph 1004.1mb 57f 63f
2:30 3 5 mph 1004mb 57f 64f
2:24  -  1 mph 1003.9mb 57f 64f
2:18 1 2 mph 1003.8mb 57f 64f
2:12 2 3 mph 1003.7mb 57f 63f
2:06 3 5 mph 1003.6mb 57f 62f
2:00 2 3 mph 1003.8mb 57f 63f
1:54 3
mph
1003.8mb 57f 65f
1:48 5
mph
1003.8mb 57f 64f
1:42  -  2 mph 1003.8mb 57f 62f
1:36 2 5 mph 1003.9mb 57f 61f
1:30 5 6 mph 1004mb 57f 62f
1:24 5 7 mph 1004.1mb 57f 63f
1:18 3 7 mph 1003.9mb 57f 64f
1:12 1
mph
1003.7mb 57f 66f
1:06 1 3 mph 1003.7mb 57f 67f
1:00 3 6 mph 1003.6mb 56f 67f
12:54 5 6 mph 1003.6mb 56f 67f
12:48 3 6 mph 1003.8mb 56f 67f
12:42 3
mph
1004mb 56f 66f
12:36 2
mph
1004mb 56f 65f
12:30  -  1 mph 1004.1mb 56f 65f
12:24 1 2 mph 1004.3mb 56f 64f
12:18 1 2 mph 1004.1mb 56f 65f
12:12 1 3 mph 1004.2mb 56f 68f
12:06 3
mph
1004.2mb 56f 66f
12:00 2 3 mph - 56f 65f
ven. 07/22 11:54  -  1 mph - 56f 67f
11:48 1 2 mph 1004.2mb 55f 68f
11:42 1 3 mph 1004.4mb 55f 69f
11:36 3 6 mph 1004.5mb 56f 68f
11:30 3 5 mph 1004.4mb 56f 67f
11:24 3 6 mph 1004.4mb 56f 70f
11:18  -  2 mph 1004.3mb 56f 73f
11:12 2 5 mph 1004.2mb 56f 74f
11:06 3 5 mph 1004mb 56f 74f
11:00  -  mph - 56f 74f
10:54  -  mph - 56f 73f
10:48 3 5 mph - - -
10:42 3 5 mph - - -
10:36 5 7 mph - - -
10:30 3 5 mph - 56f -
10:24 3 5 mph - 56f -
10:18 3 6 mph - 56f 72f
10:12 5 6 mph - 56f 71f
10:06 3 7 mph - 56f 69f
10:00 6 7 mph - 56f 70f
9:54 6 13 mph - 56f -
9:48 13 18 mph - - -
9:42 13 20 mph - - -
9:36 14 24 mph - - -
9:30 10 16 mph - 57f -
9:24 11 15 mph - 57f -
9:18 10 15 mph 1003.6mb 57f -
9:12 11 16 mph 1003.6mb 57f -
9:06 11 16 mph 1003.4mb 57f -
9:00  -  mph - 57f 78f
8:54  -  mph - 57f 78f
8:48 11 16 mph - - -
8:42 11 17 mph - - -
8:36 13 17 mph - - -
8:30 13 16 mph - - 79f
8:24 13 17 mph - - 79f
8:18  -  mph - 57f -
8:12  -  mph - 56f -
8:06  -  mph - 56f -
8:00  -  mph - - 80f
7:54  -  mph - - 81f
7:48 11 21 mph - 56f -
7:42 11 16 mph - 56f -
7:36 10 20 mph - 56f -
7:30 13 18 mph - 56f -
7:24 14 18 mph - 56f -
7:18 11 17 mph - 56f -
7:12 9 17 mph - 56f -
7:06 14 20 mph - 56f -
7:00 11 18 mph - 56f -
6:54 11 17 mph - 56f -
6:48 9 21 mph - 56f -
6:42 13 20 mph - 56f -
6:36 10 18 mph - 56f -
6:30 17 22 mph - 56f 80f
6:24 15 23 mph - 56f 80f
6:18  -  mph - 56f 80f
6:12  -  mph - 56f 81f
6:06  -  mph - 56f 81f
6:00  -  mph - 56f -
5:54  -  mph - 56f -
5:48 14 21 mph - 56f 81f
5:42 11 22 mph - 56f 81f
5:36 13 20 mph - 56f 80f
5:30 11 21 mph 1002.7mb 56f 80f
5:24 16 22 mph 1002.7mb 56f 81f
5:18 13 21 mph 1002.9mb 56f 81f
5:12 13 22 mph 1002.9mb 55f 81f
5:06 10 23 mph 1003mb 56f 81f
5:00 16 22 mph 1002.9mb 56f 81f
4:54 11 17 mph 1002.9mb 56f 82f
4:48 15 24 mph 1002.9mb 56f 82f
4:42 14 22 mph 1002.9mb 56f 82f
4:36 14 24 mph 1003mb 56f 82f
4:30 15 21 mph 1003mb 56f 82f
4:24 11 22 mph 1003.1mb 56f 82f
4:18 16 23 mph 1003.1mb 56f 81f
4:12 14 21 mph 1003.2mb 56f 81f
4:06 18 25 mph 1003.2mb 56f 80f
4:00 11 21 mph 1003.4mb 56f 81f
3:54 15 25 mph 1003.4mb 56f 80f
3:48 10 22 mph 1003.4mb 56f 80f
3:42 15 24 mph 1003.5mb 56f 80f
3:36 15 20 mph 1003.6mb 56f 80f
3:30 10 21 mph 1003.7mb 56f 80f
3:24 14 22 mph 1003.7mb 56f 80f
3:18 9 22 mph 1003.7mb 56f 81f
3:12 11 21 mph 1003.7mb 55f 80f
3:06 10 22 mph 1003.9mb 55f 80f
3:00 16 24 mph 1004mb 55f 80f
2:54 10 21 mph 1004mb 55f 80f
2:48 13 22 mph 1004.1mb 55f 80f
2:42 15 23 mph 1004.1mb 55f 80f
2:36 14 22 mph 1004.2mb 55f 80f
2:30 13 24 mph 1004.3mb 54f 80f
2:24 16 24 mph 1004.3mb 54f 80f
2:18 13 22 mph 1004.3mb 56f 79f
2:12 15 23 mph 1004.3mb 54f 79f
2:06 11 22 mph 1004.2mb 54f 79f
2:00 14 23 mph 1004.1mb 54f 79f
1:54 15 24 mph 1004.2mb 54f 79f
1:48 14 24 mph 1004.2mb 54f 80f
1:42 10 18 mph 1004.2mb 55f 80f
1:36 8 20 mph 1004.3mb 54f 80f
1:30 17 22 mph 1004.4mb 54f 79f
1:24 7 17 mph 1004.4mb 54f 80f
1:18 14 20 mph 1004.5mb 54f 78f
1:12 10 15 mph 1004.6mb 54f 79f
1:06 10 22 mph 1004.6mb 54f 78f
1:00 6 20 mph 1004.7mb 54f 78f
12:54 11 22 mph 1004.8mb 54f 79f
12:48 16 22 mph 1004.8mb 54f 78f
12:42 15 24 mph 1004.8mb 54f 77f
12:36 16 22 mph 1004.9mb 54f 77f
12:30 9 22 mph 1005mb 54f 78f
12:24 11 20 mph 1005.1mb 55f 78f
12:18 14 18 mph 1005.2mb 56f 77f
12:12 10 17 mph 1005.3mb 55f 77f
12:06 11 20 mph 1005.2mb 55f 77f
12:00 14 21 mph 1005.2mb 56f 76f
11:54 13 23 mph 1005.3mb 56f 76f
11:48 7 18 mph 1005.5mb 55f 75f
11:42 3 17 mph 1005.6mb 55f 76f
11:36 11 18 mph 1005.6mb 56f 75f
11:30 9 14 mph 1005.5mb 56f 75f
11:24 9 18 mph 1005.7mb 56f 76f
11:18 11 20 mph 1005.6mb 56f 76f
11:12 13 21 mph 1005.7mb 56f 77f
11:06 10 20 mph 1005.7mb 56f 76f
11:00 10 17 mph 1005.8mb 56f 76f
10:54 11 21 mph 1005.8mb 56f 76f
10:48 14 21 mph 1005.8mb 56f 76f
10:42 15 20 mph 1005.9mb 56f 76f
10:36 11 21 mph 1005.9mb 56f 75f
10:30 13 20 mph 1005.9mb 56f 75f
10:24 14 22 mph 1005.8mb 56f 75f
10:18 15 21 mph 1005.7mb 56f 76f
10:12 14 24 mph 1005.7mb 56f 76f
10:06 15 24 mph 1005.9mb 56f 74f
10:00 14 21 mph 1006mb 56f 74f
9:54 13 23 mph 1006mb 56f 74f
9:48 17 25 mph 1006.1mb 56f 73f
9:42 15 20 mph 1006.3mb 56f 74f
9:36 11 17 mph 1006.4mb 56f 74f
9:30 10 23 mph 1006.4mb 57f 74f
9:24 11 20 mph 1006.5mb 57f 74f
9:18 14 21 mph 1006.4mb 57f 74f
9:12 15 24 mph 1006.4mb 57f 74f
9:06 16 22 mph 1006.5mb 57f 74f
9:00 17 23 mph 1006.5mb 57f 73f
8:54 18 23 mph 1006.7mb 57f 72f
8:48 18 24 mph 1006.8mb 57f 72f
8:42 18 28 mph 1006.8mb 58f 72f
8:36 18 26 mph 1006.9mb 58f 73f
8:30 20 25 mph 1007mb 58f 73f
8:24 18 26 mph 1007.2mb 58f 72f
8:18 16 26 mph 1007.3mb 58f 72f
8:12 15 26 mph 1007.2mb 58f 72f
8:06 16 22 mph 1007.3mb 58f 72f
8:00 17 24 mph 1007.3mb 58f 72f
7:54 17 24 mph 1007.5mb 58f 71f
7:48 15 24 mph 1007.7mb 58f 71f
7:42 15 23 mph 1007.8mb 58f 71f
7:36 15 23 mph 1007.8mb 58f 71f
7:30 13 21 mph 1007.8mb 58f 72f
7:24 15 21 mph 1007.9mb 58f 72f
7:18 13 20 mph 1007.9mb 58f 72f
7:12 13 22 mph 1008mb 58f 72f
7:06 13 21 mph 1007.9mb 58f 72f
7:00 15 21 mph 1008mb 58f 72f
6:54 14 22 mph 1008.1mb 58f 72f
6:48 14 22 mph 1007.9mb 58f 72f
6:42 14 23 mph 1007.9mb 58f 72f
6:36 15 22 mph 1007.8mb 58f 72f
6:30 16 24 mph 1008mb 58f 72f
6:24 11 23 mph 1007.9mb 58f 72f
6:18 15 21 mph 1007.9mb 58f 73f
6:12 10 18 mph 1007.9mb 58f 73f
6:06 11 20 mph 1007.9mb 58f 73f
6:00 10 20 mph 1008mb 57f 73f
5:54 10 18 mph 1008.1mb 58f 74f
5:48 11 18 mph 1008.1mb 58f 75f
5:42 13 16 mph 1008mb 57f 75f
5:36 11 17 mph 1008.1mb 57f 75f
5:30 9 16 mph 1008.3mb 58f 75f
5:24 11 16 mph 1008.2mb 58f 76f
5:18 10 18 mph 1008.2mb 58f 76f
5:12 10 14 mph 1008.1mb 58f 77f
5:06 8 14 mph 1008.1mb 58f 76f
5:00 6 14 mph 1008.3mb 58f 75f
4:54 3 8 mph 1008.4mb 58f 74f
4:48 5 10 mph 1008.5mb 58f 72f
4:42 6 9 mph 1008.6mb 58f 72f
4:36 5 10 mph 1008.7mb 58f 69f
4:30 2 5 mph 1008.8mb 58f 68f
4:24 3 6 mph 1008.9mb 57f 64f
4:18 3 6 mph 1009mb 57f 63f
4:12 2 5 mph 1009mb 57f 63f
4:06 1 3 mph 1009.1mb 57f 64f
4:00 3 7 mph 1009.2mb 57f 65f
3:54 7 8 mph 1009.2mb 57f 64f
3:48 5 9 mph 1009.2mb 57f 64f
3:42 5 7 mph 1009.1mb 57f 69f
3:36 6 10 mph 1009.1mb 57f 76f
3:30 6 11 mph 1009.1mb 57f 77f
3:24 5 10 mph 1009.2mb 57f 76f
3:18 6 9 mph 1009.4mb 57f 76f
3:12 5 9 mph 1009.4mb 57f 76f
3:06 6 11 mph 1009.4mb 57f 76f
3:00 8 11 mph 1009.5mb 57f 76f
2:54 5 9 mph 1009.6mb 57f 73f
2:48 6 7 mph 1009.8mb 56f -
2:42 6 10 mph 1009.9mb 56f -
2:36 7 9 mph 1010mb 56f -
2:30 8 13 mph 1010mb 56f 74f
2:24 7 10 mph 1010mb 56f 75f
2:18 8 13 mph 1010.2mb 56f 75f
2:12 5 9 mph 1010.2mb 56f 71f
2:06 5 8 mph 1010.2mb 55f 70f
2:00 7 13 mph 1010.4mb 54f 71f
1:54 7 10 mph 1010.5mb 53f 75f
1:48 8 13 mph 1010.6mb - -
1:42 7 14 mph 1010.7mb - -
1:36 9 14 mph 1010.7mb - -
1:30 9 14 mph 1010.6mb 53f 76f
1:24 8 15 mph 1010.7mb 52f 76f
1:18 6 9 mph 1010.8mb 53f 75f
1:12 3 9 mph 1010.8mb 53f 71f
1:06 1 5 mph 1010.9mb 52f 68f
1:00 1 6 mph 1010.9mb 52f 68f
12:54 5 7 mph 1011.1mb 52f 65f
12:48 5 7 mph 1011.2mb 53f 66f
12:42 6 7 mph 1011.4mb 53f 65f
12:36 3 7 mph 1011.6mb 53f 69f
12:30 6 8 mph 1011.6mb 53f 74f
12:24 3 10 mph 1011.8mb 54f 74f
12:18 5 10 mph 1011.7mb 55f 74f
12:12 5 15 mph 1011.8mb 55f 74f
12:06 7 13 mph 1011.8mb 55f 74f
12:00 6 14 mph 1011.9mb 56f 74f
jeu. 07/21 11:54 9 14 mph 1011.8mb 55f 74f
11:48 7 11 mph 1012mb 55f 74f
11:42 7 11 mph 1011.9mb 55f 74f
11:36 6 9 mph 1012mb 55f 74f
11:30 6 9 mph 1011.9mb 55f 74f
11:24 7 10 mph 1012mb 55f 74f
11:18 5 11 mph - 56f 74f
11:12 7 11 mph - 56f 74f
11:06 9 13 mph - 55f 74f
11:00  -  mph - 55f 74f
10:54  -  mph - 55f 74f
10:48 5 11 mph - 56f -
10:42 9 14 mph - 56f -
10:36 6 13 mph - 56f -
10:30 7 14 mph - 56f -
10:24 9 13 mph - 55f -
10:18 8 11 mph - 55f 73f
10:12 7 9 mph - 56f 73f
10:06 9 13 mph - 56f 73f
10:00  -  mph - 55f 73f
9:54  -  mph - 56f 73f
9:48 8 17 mph - - -
9:42 8 17 mph - - -
9:36 10 17 mph - - -
9:30 8 17 mph - 57f -
9:24 10 18 mph - 57f -
9:18 9 18 mph - 57f -
9:12 9 22 mph - 57f -
9:06 11 21 mph - 56f -
9:00  -  mph - 56f 73f
8:54  -  mph - 56f 73f
8:48  -  mph - 57f -
8:42  -  mph - 57f -
8:36  -  mph - 57f -
8:30  -  mph - 58f -
8:24  -  mph - 58f -
8:18 6 13 mph 1013mb 58f -
8:12 8 15 mph 1012.8mb 58f -
8:06 10 16 mph 1012.9mb 58f -
8:00  -  mph - 58f 73f
7:54  -  mph - 58f 73f
7:48  -  mph - 58f -
7:42  -  mph - 58f -
7:36  -  mph - 59f -
7:30  -  mph - 59f -
7:24  -  mph - 59f -
7:18 9 16 mph - 59f 74f
7:12 9 16 mph - 59f 74f
7:06 9 14 mph - 59f 75f
7:00  -  mph - 59f -
6:54  -  mph - 60f -
6:48  -  mph - 60f -
6:42  -  mph - 60f -
6:36  -  mph - 60f -
6:30  -  mph - 60f -
6:24  -  mph - 60f -
6:18  -  mph 1013.7mb 60f 74f
6:12  -  mph 1013.8mb 60f 74f
6:06  -  mph 1013.9mb 60f 75f
6:00  -  mph - 60f 75f
5:54  -  mph - 60f 75f
5:48 10 16 mph 1014.2mb 60f 75f
5:42 6 14 mph 1014.2mb 60f 76f
5:36 8 14 mph 1014.1mb 60f 76f
5:30 10 16 mph 1014.1mb 60f 76f
5:24 10 15 mph 1014.1mb 60f 76f
5:18 6 13 mph 1014.2mb 60f 76f
5:12 11 17 mph 1014.3mb 60f 76f
5:06 13 16 mph 1014.2mb 60f 76f
5:00 10 15 mph 1014.1mb 60f 77f
4:54 11 17 mph 1014mb 59f 77f
4:48 8 15 mph 1014.1mb 58f 77f
4:42 9 16 mph 1014.2mb 59f 78f
4:36 9 16 mph 1014.4mb 58f 78f
4:30 10 18 mph 1014.5mb 58f 78f
4:24 15 21 mph 1014.5mb 59f 77f
4:18 14 21 mph 1014.6mb 60f 78f
4:12 11 20 mph 1014.6mb 59f 78f
4:06 13 20 mph 1014.6mb 58f 78f
4:00 13 18 mph 1014.4mb 59f 78f
3:54 10 18 mph 1014.5mb 60f 78f
3:48 14 20 mph 1014.6mb 59f 78f
3:42 13 18 mph 1014.7mb 59f 78f
3:36 9 14 mph 1014.7mb 59f 79f
3:30 10 16 mph 1014.6mb 59f 78f
3:24 9 14 mph 1014.6mb 59f 79f
3:18 8 15 mph 1014.6mb 60f 79f
3:12 8 14 mph 1014.5mb 59f 79f
3:06 7 13 mph 1014.3mb 58f 80f
3:00 8 14 mph 1014.4mb 59f 79f
2:54 8 14 mph 1014.5mb 60f 79f
2:48 9 16 mph 1014.3mb 58f 79f
2:42 13 17 mph 1014.3mb 59f 79f
2:36 9 15 mph 1014.4mb 59f 80f
2:30 10 15 mph 1014.6mb 59f 79f
2:24 11 16 mph 1014.7mb 60f 79f
2:18 8 14 mph 1014.6mb 60f 79f
2:12 9 14 mph 1014.8mb 59f 79f
2:06 7 16 mph 1014.8mb 58f 79f
2:00 10 14 mph 1014.9mb 58f 79f
1:54 8 16 mph 1014.9mb 59f 80f
1:48 6 13 mph 1014.9mb 60f 80f
1:42 6 16 mph 1014.7mb 59f 80f
1:36 7 14 mph 1015mb 58f 81f
1:30 9 15 mph 1015.1mb 56f 80f
1:24 8 13 mph 1015.2mb 56f 79f
1:18 8 17 mph 1015.4mb 57f 79f
1:12 7 16 mph 1015.5mb 56f 79f
1:06 7 14 mph 1015.5mb 56f 79f
1:00 8 16 mph 1015.7mb 57f 79f
12:54 7 11 mph 1015.7mb 56f 78f
12:48 9 15 mph 1015.8mb 56f 78f
12:42 8 13 mph 1015.9mb 57f 78f
12:36 9 13 mph 1016mb 58f 78f
12:30 6 10 mph 1016.2mb 58f 78f
12:24 9 15 mph 1016.3mb 59f 78f
12:18 9 15 mph 1016.4mb 58f 78f
12:12 8 11 mph 1016.5mb 58f 78f
12:06 7 14 mph 1016.5mb 58f 78f
12:00 8 14 mph 1016.6mb 58f 78f
11:54 8 13 mph 1016.7mb 58f 78f
11:48 7 11 mph 1016.8mb 58f 77f
11:42 7 13 mph 1016.7mb 58f 77f
11:36 7 10 mph 1016.8mb 57f 77f
11:30 5 9 mph 1016.8mb 57f 77f
11:24 7 11 mph 1016.9mb 57f 77f
11:18 6 10 mph 1017mb 57f 76f
11:12 7 10 mph 1017mb 57f 75f
11:06 9 10 mph 1017mb 57f 76f
11:00 8 10 mph 1017mb 57f 76f
10:54 3 10 mph 1017.1mb 57f 76f
10:48 6 13 mph 1017.1mb 57f 76f
10:42 8 13 mph 1017mb 57f 75f
10:36 3 8 mph 1016.9mb 57f 75f
10:30 8 13 mph 1017.1mb 57f 75f
10:24 7 10 mph 1017.2mb 58f 74f
10:18 9 14 mph 1017.3mb 58f 75f
10:12 9 13 mph 1017.3mb 57f 74f
10:06 10 14 mph 1017.2mb 57f 74f
10:00 11 14 mph 1017.3mb 57f 74f
9:54 10 13 mph 1017.3mb 57f 74f
9:48 9 13 mph 1017.3mb 58f 74f
9:42 8 14 mph 1017.3mb 58f 74f
9:36 8 10 mph 1017.3mb 58f 74f
9:30 8 9 mph 1017.2mb 58f 74f
9:24 7 10 mph 1017.3mb 58f 73f
9:18 8 13 mph 1017.3mb 58f 73f
9:12 8 10 mph 1017.1mb 58f 73f
9:06 8 10 mph 1017.1mb 58f 73f
9:00 9 10 mph 1016.9mb 59f 73f
8:54 7 10 mph 1016.7mb 59f 73f
8:48 7 10 mph 1016.7mb 58f 73f
8:42 7 10 mph 1016.8mb 59f 73f
8:36 7 11 mph 1017mb 59f 72f
8:30 10 13 mph 1017.1mb 59f 72f
8:24 9 11 mph 1017mb 59f 71f
8:18 9 11 mph 1016.9mb 59f 71f
8:12 6 15 mph 1017mb 60f 71f
8:06 9 14 mph 1017.1mb 60f 71f
8:00 5 10 mph 1017.3mb 60f 71f
7:54 6 10 mph 1017.3mb 60f 71f
7:48 8 14 mph 1017.4mb 60f 70f
7:42 7 14 mph 1017.4mb 60f 70f
7:36 8 13 mph 1017.4mb 60f 70f
7:30 9 13 mph 1017.4mb 60f 69f
7:24 7 10 mph 1017.3mb 60f 70f
7:18 7 10 mph 1017.3mb 60f 69f
7:12 6 8 mph 1017.4mb 60f 69f
7:06 7 8 mph 1017.4mb 60f 68f
7:00 7 8 mph 1017.4mb 60f 68f
6:54 7 10 mph 1017.4mb 60f 67f
6:48 8 10 mph 1017.3mb 60f 67f
6:42 8 9 mph 1017.2mb 60f 68f
6:36 6 8 mph 1017.1mb 60f 68f
6:30 6 7 mph 1017.1mb 60f 68f
6:24 5 7 mph 1017mb 60f 67f
6:18 3 5 mph 1017.1mb 60f 68f